createdAt,value
2019-06-07T00:00:38.260Z,977.17
2019-06-07T00:01:26.612Z,977.13
2019-06-07T00:02:26.537Z,977.20
2019-06-07T00:03:30.098Z,977.22
2019-06-07T00:04:26.566Z,977.21
2019-06-07T00:05:26.531Z,977.21
2019-06-07T00:06:26.549Z,977.23
2019-06-07T00:07:26.548Z,977.24
2019-06-07T00:08:28.867Z,977.25
2019-06-07T00:09:26.544Z,977.33
2019-06-07T00:10:36.080Z,977.34
2019-06-07T00:11:26.585Z,977.33
2019-06-07T00:12:26.599Z,977.40
2019-06-07T00:13:26.553Z,977.30
2019-06-07T00:14:26.547Z,977.30
2019-06-07T00:15:29.049Z,977.32
2019-06-07T00:16:26.605Z,977.38
2019-06-07T00:17:26.554Z,977.34
2019-06-07T00:18:26.567Z,977.31
2019-06-07T00:19:26.535Z,977.40
2019-06-07T00:20:26.627Z,977.35
2019-06-07T00:22:12.747Z,977.34
2019-06-07T00:22:33.192Z,977.36
2019-06-07T00:23:26.593Z,977.37
2019-06-07T00:24:26.604Z,977.35
2019-06-07T00:25:26.556Z,977.35
2019-06-07T00:26:26.596Z,977.39
2019-06-07T00:27:26.570Z,977.42
2019-06-07T00:28:26.599Z,977.40
2019-06-07T00:29:26.615Z,977.40
2019-06-07T00:30:41.073Z,977.39
2019-06-07T00:31:26.613Z,977.40
2019-06-07T00:32:26.581Z,977.48
2019-06-07T00:33:26.616Z,977.43
2019-06-07T00:34:26.547Z,977.51
2019-06-07T00:35:26.527Z,977.51
2019-06-07T00:36:26.565Z,977.44
2019-06-07T00:37:26.640Z,977.48
2019-06-07T00:38:26.622Z,977.45
2019-06-07T00:39:26.581Z,977.43
2019-06-07T00:40:31.776Z,977.45
2019-06-07T00:41:26.595Z,977.46
2019-06-07T00:42:26.560Z,977.48
2019-06-07T00:43:28.586Z,977.55
2019-06-07T00:44:26.646Z,977.47
2019-06-07T00:45:26.633Z,977.58
2019-06-07T00:46:26.614Z,977.50
2019-06-07T00:47:26.679Z,977.54
2019-06-07T00:48:32.394Z,977.51
2019-06-07T00:49:39.869Z,977.54
2019-06-07T00:50:26.633Z,977.61
2019-06-07T00:51:26.698Z,977.53
2019-06-07T00:53:13.205Z,977.59
2019-06-07T00:53:31.797Z,977.52
2019-06-07T00:54:26.635Z,977.53
2019-06-07T00:55:27.714Z,977.50
2019-06-07T00:56:26.702Z,977.48
2019-06-07T00:57:26.698Z,977.50
2019-06-07T00:58:27.898Z,977.51
2019-06-07T00:59:29.587Z,977.41
2019-06-07T01:00:26.646Z,977.53
2019-06-07T01:01:26.750Z,977.55
2019-06-07T01:02:31.309Z,977.60
2019-06-07T01:03:26.727Z,977.62
2019-06-07T01:04:27.214Z,977.59
2019-06-07T01:05:30.981Z,977.57
2019-06-07T01:06:26.693Z,977.62
2019-06-07T01:07:26.661Z,977.60
2019-06-07T01:08:29.871Z,977.57
2019-06-07T01:09:26.654Z,977.59
2019-06-07T01:10:51.663Z,977.56
2019-06-07T01:11:26.695Z,977.63
2019-06-07T01:12:27.012Z,977.59
2019-06-07T01:13:27.109Z,977.69
2019-06-07T01:14:28.381Z,977.62
2019-06-07T01:15:29.153Z,977.63
2019-06-07T01:16:26.689Z,977.64
2019-06-07T01:17:36.291Z,977.64
2019-06-07T01:18:37.755Z,977.69
2019-06-07T01:19:27.761Z,977.71
2019-06-07T01:20:26.865Z,977.69
2019-06-07T01:21:29.326Z,977.69
2019-06-07T01:22:29.001Z,977.71
2019-06-07T01:24:04.742Z,977.62
2019-06-07T01:24:28.055Z,977.69
2019-06-07T01:25:28.794Z,977.60
2019-06-07T01:26:29.454Z,977.66
2019-06-07T01:27:26.668Z,977.65
2019-06-07T01:28:27.182Z,977.66
2019-06-07T01:29:29.426Z,977.72
2019-06-07T01:30:26.898Z,977.70
2019-06-07T01:31:30.520Z,977.66
2019-06-07T01:32:27.163Z,977.66
2019-06-07T01:33:38.816Z,977.59
2019-06-07T01:34:26.989Z,977.56
2019-06-07T01:35:26.759Z,977.61
2019-06-07T01:36:29.560Z,977.57
2019-06-07T01:37:27.980Z,977.60
2019-06-07T01:38:26.864Z,977.59
2019-06-07T01:39:29.794Z,977.60
2019-06-07T01:40:29.696Z,977.51
2019-06-07T01:41:28.446Z,977.57
2019-06-07T01:42:29.441Z,977.56
2019-06-07T01:43:28.670Z,977.54
2019-06-07T01:44:28.107Z,977.62
2019-06-07T01:45:30.622Z,977.60
2019-06-07T01:46:26.920Z,977.59
2019-06-07T01:47:28.750Z,977.66
2019-06-07T01:48:44.575Z,977.68
2019-06-07T01:49:28.156Z,977.60
2019-06-07T01:50:27.273Z,977.66
2019-06-07T01:51:27.907Z,977.50
2019-06-07T01:52:26.821Z,977.68
2019-06-07T01:53:29.103Z,977.56
2019-06-07T01:54:52.141Z,977.57
2019-06-07T01:55:29.839Z,977.56
2019-06-07T01:56:29.519Z,977.61
2019-06-07T01:57:38.025Z,977.62
2019-06-07T01:58:29.059Z,977.63
2019-06-07T01:59:28.564Z,977.59
2019-06-07T02:00:31.479Z,977.64
2019-06-07T02:01:34.529Z,977.62
2019-06-07T02:02:30.040Z,977.70
2019-06-07T02:03:32.265Z,977.66
2019-06-07T02:04:29.376Z,977.75
2019-06-07T02:05:30.529Z,977.80
2019-06-07T02:06:27.929Z,977.80
2019-06-07T02:07:30.366Z,977.77
2019-06-07T02:08:33.568Z,977.73
2019-06-07T02:09:29.880Z,977.75
2019-06-07T02:10:30.302Z,977.81
2019-06-07T02:11:28.770Z,977.79
2019-06-07T02:12:37.599Z,977.82
2019-06-07T02:13:28.892Z,977.84
2019-06-07T02:14:29.891Z,977.91
2019-06-07T02:15:30.702Z,977.84
2019-06-07T02:16:30.408Z,977.85
2019-06-07T02:17:29.744Z,977.83
2019-06-07T02:18:29.151Z,977.87
2019-06-07T02:19:27.548Z,977.80
2019-06-07T02:20:31.449Z,977.88
2019-06-07T02:21:30.448Z,977.81
2019-06-07T02:22:29.456Z,977.86
2019-06-07T02:23:29.199Z,977.90
2019-06-07T02:24:28.861Z,977.83
2019-06-07T02:25:39.308Z,977.83
2019-06-07T02:26:29.700Z,977.89
2019-06-07T02:27:27.488Z,977.88
2019-06-07T02:28:34.650Z,977.90
2019-06-07T02:29:30.279Z,977.97
2019-06-07T02:30:40.473Z,977.96
2019-06-07T02:31:28.699Z,977.96
2019-06-07T02:32:29.730Z,977.95
2019-06-07T02:33:28.947Z,978.03
2019-06-07T02:34:28.084Z,978.00
2019-06-07T02:35:34.744Z,978.03
2019-06-07T02:36:30.501Z,977.99
2019-06-07T02:37:27.744Z,978.03
2019-06-07T02:38:29.687Z,978.05
2019-06-07T02:39:28.895Z,978.08
2019-06-07T02:40:31.971Z,978.15
2019-06-07T02:41:33.330Z,978.15
2019-06-07T02:42:29.491Z,978.17
2019-06-07T02:43:27.551Z,978.19
2019-06-07T02:44:30.270Z,978.22
2019-06-07T02:45:29.892Z,978.23
2019-06-07T02:46:35.302Z,978.20
2019-06-07T02:47:28.686Z,978.29
2019-06-07T02:48:27.925Z,978.31
2019-06-07T02:49:28.965Z,978.30
2019-06-07T02:50:29.211Z,978.29
2019-06-07T02:51:28.081Z,978.25
2019-06-07T02:52:29.312Z,978.27
2019-06-07T02:53:27.223Z,978.33
2019-06-07T02:54:29.433Z,978.29
2019-06-07T02:55:29.596Z,978.31
2019-06-07T02:56:39.192Z,978.36
2019-06-07T02:57:28.538Z,978.23
2019-06-07T02:58:31.155Z,978.31
2019-06-07T02:59:47.225Z,978.35
2019-06-07T03:00:51.423Z,978.34
2019-06-07T03:01:28.543Z,978.28
2019-06-07T03:02:31.032Z,978.35
2019-06-07T03:03:28.897Z,978.37
2019-06-07T03:04:28.916Z,978.34
2019-06-07T03:05:27.387Z,978.39
2019-06-07T03:06:29.773Z,978.38
2019-06-07T03:07:28.311Z,978.41
2019-06-07T03:08:28.251Z,978.45
2019-06-07T03:09:28.845Z,978.43
2019-06-07T03:10:28.570Z,978.47
2019-06-07T03:11:28.103Z,978.48
2019-06-07T03:12:28.966Z,978.46
2019-06-07T03:13:28.923Z,978.47
2019-06-07T03:14:26.791Z,978.42
2019-06-07T03:15:37.430Z,978.46
2019-06-07T03:16:26.776Z,978.42
2019-06-07T03:17:27.166Z,978.49
2019-06-07T03:18:28.649Z,978.49
2019-06-07T03:19:26.854Z,978.51
2019-06-07T03:20:27.614Z,978.51
2019-06-07T03:21:28.159Z,978.54
2019-06-07T03:22:26.809Z,978.63
2019-06-07T03:23:28.704Z,978.57
2019-06-07T03:24:31.015Z,978.54
2019-06-07T03:25:28.120Z,978.58
2019-06-07T03:26:27.620Z,978.68
2019-06-07T03:27:38.891Z,978.65
2019-06-07T03:28:27.630Z,978.68
2019-06-07T03:29:28.840Z,978.62
2019-06-07T03:30:39.844Z,978.68
2019-06-07T03:31:28.490Z,978.63
2019-06-07T03:32:31.996Z,978.67
2019-06-07T03:33:26.907Z,978.62
2019-06-07T03:34:32.173Z,978.67
2019-06-07T03:35:28.473Z,978.62
2019-06-07T03:36:27.547Z,978.59
2019-06-07T03:37:28.070Z,978.76
2019-06-07T03:38:27.729Z,978.71
2019-06-07T03:39:28.417Z,978.67
2019-06-07T03:40:26.823Z,978.76
2019-06-07T03:41:29.300Z,978.76
2019-06-07T03:42:26.803Z,978.83
2019-06-07T03:43:27.405Z,978.88
2019-06-07T03:44:28.659Z,978.91
2019-06-07T03:45:28.610Z,978.98
2019-06-07T03:46:27.320Z,978.99
2019-06-07T03:47:30.602Z,979.02
2019-06-07T03:48:28.437Z,979.01
2019-06-07T03:49:27.922Z,979.04
2019-06-07T03:50:30.584Z,979.01
2019-06-07T03:51:27.074Z,979.03
2019-06-07T03:52:27.453Z,979.06
2019-06-07T03:53:30.487Z,979.03
2019-06-07T03:54:27.234Z,979.05
2019-06-07T03:55:27.819Z,978.97
2019-06-07T03:56:28.319Z,978.96
2019-06-07T03:57:28.656Z,979.02
2019-06-07T03:58:32.580Z,979.03
2019-06-07T03:59:28.410Z,979.11
2019-06-07T04:00:29.603Z,979.15
2019-06-07T04:01:28.601Z,979.13
2019-06-07T04:02:27.850Z,979.10
2019-06-07T04:03:36.086Z,979.16
2019-06-07T04:04:27.357Z,979.11
2019-06-07T04:05:28.740Z,979.17
2019-06-07T04:06:28.991Z,979.10
2019-06-07T04:07:28.950Z,979.15
2019-06-07T04:08:28.187Z,979.11
2019-06-07T04:09:28.588Z,979.14
2019-06-07T04:10:45.762Z,979.19
2019-06-07T04:11:27.814Z,979.20
2019-06-07T04:12:28.394Z,979.20
2019-06-07T04:13:28.916Z,979.25
2019-06-07T04:14:29.334Z,979.18
2019-06-07T04:15:27.804Z,979.26
2019-06-07T04:16:28.818Z,979.21
2019-06-07T04:17:27.408Z,979.19
2019-06-07T04:18:27.930Z,979.28
2019-06-07T04:19:28.735Z,979.26
2019-06-07T04:20:29.183Z,979.28
2019-06-07T04:21:29.508Z,979.34
2019-06-07T04:22:28.751Z,979.25
2019-06-07T04:23:29.966Z,979.34
2019-06-07T04:24:26.807Z,979.29
2019-06-07T04:25:26.841Z,979.29
2019-06-07T04:26:30.910Z,979.31
2019-06-07T04:27:26.849Z,979.37
2019-06-07T04:29:15.621Z,979.38
2019-06-07T04:29:47.329Z,979.33
2019-06-07T04:30:26.860Z,979.35
2019-06-07T04:31:26.827Z,979.29
2019-06-07T04:32:26.839Z,979.31
2019-06-07T04:33:26.852Z,979.36
2019-06-07T04:34:26.845Z,979.38
2019-06-07T04:35:26.842Z,979.35
2019-06-07T04:36:41.723Z,979.42
2019-06-07T04:37:26.836Z,979.43
2019-06-07T04:38:26.843Z,979.32
2019-06-07T04:39:26.856Z,979.37
2019-06-07T04:40:27.836Z,979.36
2019-06-07T04:41:26.853Z,979.37
2019-06-07T04:42:26.915Z,979.38
2019-06-07T04:43:26.891Z,979.38
2019-06-07T04:44:26.849Z,979.40
2019-06-07T04:45:33.948Z,979.35
2019-06-07T04:46:26.905Z,979.36
2019-06-07T04:47:26.834Z,979.26
2019-06-07T04:48:26.845Z,979.34
2019-06-07T04:49:26.952Z,979.42
2019-06-07T04:50:26.913Z,979.35
2019-06-07T04:51:26.893Z,979.33
2019-06-07T04:52:26.905Z,979.34
2019-06-07T04:53:26.856Z,979.37
2019-06-07T04:54:26.846Z,979.27
2019-06-07T04:55:26.887Z,979.30
2019-06-07T04:56:26.917Z,979.29
2019-06-07T04:57:26.860Z,979.29
2019-06-07T04:58:26.862Z,979.33
2019-06-07T05:00:04.177Z,979.32
2019-06-07T05:00:46.934Z,979.31
2019-06-07T05:01:29.137Z,979.34
2019-06-07T05:02:26.944Z,979.31
2019-06-07T05:03:26.926Z,979.39
2019-06-07T05:04:26.853Z,979.37
2019-06-07T05:05:26.874Z,979.38
2019-06-07T05:06:26.889Z,979.38
2019-06-07T05:07:26.943Z,979.35
2019-06-07T05:08:28.413Z,979.39
2019-06-07T05:09:26.858Z,979.42
2019-06-07T05:10:26.866Z,979.46
2019-06-07T05:11:26.872Z,979.41
2019-06-07T05:12:26.874Z,979.41
2019-06-07T05:13:26.930Z,979.45
2019-06-07T05:14:26.881Z,979.45
2019-06-07T05:15:26.878Z,979.56
2019-06-07T05:16:26.938Z,979.51
2019-06-07T05:17:26.894Z,979.50
2019-06-07T05:18:26.881Z,979.50
2019-06-07T05:19:26.943Z,979.55
2019-06-07T05:20:26.917Z,979.53
2019-06-07T05:21:48.213Z,979.53
2019-06-07T05:22:26.939Z,979.52
2019-06-07T05:24:02.470Z,979.52
2019-06-07T05:24:26.901Z,979.49
2019-06-07T05:25:26.909Z,979.54
2019-06-07T05:26:26.956Z,979.49
2019-06-07T05:27:26.921Z,979.44
2019-06-07T05:28:26.882Z,979.44
2019-06-07T05:29:26.892Z,979.44
2019-06-07T05:30:58.497Z,979.46
2019-06-07T05:31:26.955Z,979.52
2019-06-07T05:32:26.890Z,979.45
2019-06-07T05:33:26.887Z,979.44
2019-06-07T05:34:26.900Z,979.49
2019-06-07T05:35:26.980Z,979.42
2019-06-07T05:36:27.016Z,979.46
2019-06-07T05:37:26.929Z,979.43
2019-06-07T05:38:26.888Z,979.47
2019-06-07T05:39:26.876Z,979.46
2019-06-07T05:40:26.884Z,979.41
2019-06-07T05:41:26.921Z,979.47
2019-06-07T05:42:26.872Z,979.44
2019-06-07T05:43:26.975Z,979.45
2019-06-07T05:44:27.127Z,979.45
2019-06-07T05:45:26.912Z,979.44
2019-06-07T05:46:26.990Z,979.50
2019-06-07T05:47:26.930Z,979.50
2019-06-07T05:48:27.012Z,979.59
2019-06-07T05:49:26.894Z,979.54
2019-06-07T05:50:38.508Z,979.54
2019-06-07T05:51:26.944Z,979.60
2019-06-07T05:52:26.977Z,979.57
2019-06-07T05:53:26.915Z,979.54
2019-06-07T05:54:26.903Z,979.52
2019-06-07T05:55:26.934Z,979.55
2019-06-07T05:56:26.958Z,979.64
2019-06-07T05:57:26.962Z,979.57
2019-06-07T05:58:27.186Z,979.53
2019-06-07T05:59:26.924Z,979.56
2019-06-07T06:00:26.910Z,979.54
2019-06-07T06:01:42.847Z,979.60
2019-06-07T06:02:26.930Z,979.61
2019-06-07T06:03:27.175Z,979.54
2019-06-07T06:04:26.939Z,979.61
2019-06-07T06:05:34.558Z,979.57
2019-06-07T06:06:26.944Z,979.61
2019-06-07T06:07:26.937Z,979.66
2019-06-07T06:08:26.952Z,979.65
2019-06-07T06:09:26.948Z,979.72
2019-06-07T06:10:27.004Z,979.79
2019-06-07T06:11:43.434Z,979.76
2019-06-07T06:12:35.335Z,979.77
2019-06-07T06:13:26.966Z,979.78
2019-06-07T06:14:26.960Z,979.74
2019-06-07T06:15:41.593Z,979.83
2019-06-07T06:16:26.984Z,979.76
2019-06-07T06:17:26.929Z,979.79
2019-06-07T06:18:26.940Z,979.81
2019-06-07T06:19:27.478Z,979.80
2019-06-07T06:20:32.863Z,979.79
2019-06-07T06:21:26.928Z,979.81
2019-06-07T06:22:27.011Z,979.83
2019-06-07T06:23:27.137Z,979.79
2019-06-07T06:24:26.994Z,979.83
2019-06-07T06:25:32.962Z,979.83
2019-06-07T06:26:26.952Z,979.89
2019-06-07T06:28:27.340Z,979.93
2019-06-07T06:29:26.940Z,979.85
2019-06-07T06:30:26.983Z,979.82
2019-06-07T06:31:26.991Z,979.85
2019-06-07T06:32:46.477Z,979.89
2019-06-07T06:33:34.218Z,979.93
2019-06-07T06:34:27.010Z,979.90
2019-06-07T06:35:26.975Z,979.93
2019-06-07T06:36:26.937Z,979.91
2019-06-07T06:37:27.005Z,979.92
2019-06-07T06:38:26.958Z,979.95
2019-06-07T06:39:26.945Z,979.95
2019-06-07T06:40:27.060Z,979.94
2019-06-07T06:41:27.004Z,979.99
2019-06-07T06:42:26.957Z,979.96
2019-06-07T06:43:27.021Z,979.97
2019-06-07T06:44:26.981Z,979.95
2019-06-07T06:45:26.994Z,979.96
2019-06-07T06:46:38.869Z,980.02
2019-06-07T06:47:26.993Z,979.92
2019-06-07T06:48:26.985Z,979.97
2019-06-07T06:49:26.980Z,979.96
2019-06-07T06:50:27.013Z,980.03
2019-06-07T06:51:26.974Z,980.00
2019-06-07T06:52:27.029Z,980.00
2019-06-07T06:53:27.022Z,980.03
2019-06-07T06:54:40.254Z,980.02
2019-06-07T06:55:27.032Z,980.02
2019-06-07T06:56:27.036Z,980.02
2019-06-07T06:57:27.867Z,980.00
2019-06-07T06:58:27.024Z,979.95
2019-06-07T06:59:38.568Z,980.01
2019-06-07T07:00:43.153Z,980.00
2019-06-07T07:01:27.017Z,980.02
2019-06-07T07:02:27.024Z,980.01
2019-06-07T07:04:01.235Z,980.02
2019-06-07T07:04:27.127Z,980.03
2019-06-07T07:05:26.996Z,980.05
2019-06-07T07:06:27.226Z,980.06
2019-06-07T07:07:27.297Z,980.05
2019-06-07T07:08:26.984Z,980.07
2019-06-07T07:09:27.037Z,980.20
2019-06-07T07:10:27.036Z,980.04
2019-06-07T07:11:26.997Z,980.19
2019-06-07T07:12:27.011Z,980.13
2019-06-07T07:13:27.075Z,980.08
2019-06-07T07:14:26.985Z,980.23
2019-06-07T07:15:27.005Z,980.24
2019-06-07T07:16:27.010Z,980.28
2019-06-07T07:17:47.523Z,980.25
2019-06-07T07:18:27.009Z,980.28
2019-06-07T07:32:26.051Z,980.37
2019-06-07T07:33:26.014Z,980.33
2019-06-07T07:34:34.372Z,980.33
2019-06-07T07:35:26.003Z,980.36
2019-06-07T07:38:26.016Z,980.26
2019-06-07T07:39:26.073Z,980.38
2019-06-07T07:40:56.939Z,980.42
2019-06-07T07:41:26.007Z,980.33
2019-06-07T07:44:26.042Z,980.36
2019-06-07T07:45:26.012Z,980.47
2019-06-07T07:46:29.767Z,980.47
2019-06-07T07:47:26.050Z,980.46
2019-06-07T07:50:26.073Z,980.42
2019-06-07T07:51:26.020Z,980.55
2019-06-07T07:52:26.017Z,980.55
2019-06-07T07:53:45.019Z,980.56
2019-06-07T07:56:26.059Z,980.60
2019-06-07T07:57:26.034Z,980.60
2019-06-07T07:58:26.029Z,980.53
2019-06-07T07:59:41.102Z,980.51
2019-06-07T08:02:26.046Z,980.51
2019-06-07T08:03:26.047Z,980.52
2019-06-07T08:05:12.007Z,980.52
2019-06-07T08:05:40.004Z,980.52
2019-06-07T08:08:26.067Z,980.45
2019-06-07T08:09:26.093Z,980.45
2019-06-07T08:10:26.121Z,980.43
2019-06-07T08:11:26.044Z,980.38
2019-06-07T08:14:26.056Z,980.48
2019-06-07T08:15:26.072Z,980.42
2019-06-07T08:16:26.051Z,980.51
2019-06-07T08:17:26.052Z,980.53
2019-06-07T08:20:26.063Z,980.49
2019-06-07T08:21:26.984Z,980.46
2019-06-07T08:22:26.047Z,980.54
2019-06-07T08:23:26.070Z,980.45
2019-06-07T08:26:26.058Z,980.49
2019-06-07T08:27:26.932Z,980.51
2019-06-07T08:28:26.051Z,980.46
2019-06-07T08:29:26.093Z,980.51
2019-06-07T08:32:26.054Z,980.50
2019-06-07T08:33:26.934Z,980.52
2019-06-07T08:34:26.064Z,980.53
2019-06-07T08:38:33.834Z,980.54
2019-06-07T08:39:26.134Z,980.51
2019-06-07T08:40:26.074Z,980.52
2019-06-07T08:41:26.123Z,980.53
2019-06-07T08:44:26.093Z,980.47
2019-06-07T08:45:26.087Z,980.42
2019-06-07T08:46:26.071Z,980.42
2019-06-07T08:47:26.110Z,980.40
2019-06-07T08:50:26.130Z,980.34
2019-06-07T08:51:26.096Z,980.34
2019-06-07T08:52:26.098Z,980.41
2019-06-07T08:53:26.091Z,980.43
2019-06-07T08:56:26.147Z,980.35
2019-06-07T08:57:26.094Z,980.32
2019-06-07T08:58:26.092Z,980.32
2019-06-07T08:59:26.130Z,980.27
2019-06-07T09:02:26.140Z,980.31
2019-06-07T09:03:26.095Z,980.33
2019-06-07T09:04:26.121Z,980.28
2019-06-07T09:05:26.104Z,980.26
2019-06-07T09:08:29.755Z,980.15
2019-06-07T09:09:26.099Z,980.24
2019-06-07T09:10:26.114Z,980.27
2019-06-07T09:11:26.272Z,980.19
2019-06-07T09:14:26.136Z,980.12
2019-06-07T09:15:26.115Z,980.19
2019-06-07T09:16:26.110Z,980.14
2019-06-07T09:17:26.113Z,980.20
2019-06-07T09:20:35.875Z,980.19
2019-06-07T09:21:26.165Z,980.18
2019-06-07T09:22:26.151Z,980.19
2019-06-07T09:23:26.136Z,980.22
2019-06-07T09:26:26.165Z,980.22
2019-06-07T09:27:26.126Z,980.33
2019-06-07T09:28:26.121Z,980.26
2019-06-07T09:29:26.150Z,980.27
2019-06-07T09:32:26.103Z,980.24
2019-06-07T09:33:26.131Z,980.18
2019-06-07T09:34:26.245Z,980.23
2019-06-07T09:35:26.156Z,980.22
2019-06-07T09:38:26.799Z,980.18
2019-06-07T09:39:26.125Z,980.26
2019-06-07T09:40:27.894Z,980.21
2019-06-07T09:41:46.151Z,980.14
2019-06-07T09:44:26.684Z,980.14
2019-06-07T09:45:26.197Z,980.15
2019-06-07T09:46:26.151Z,980.19
2019-06-07T09:47:32.193Z,980.08
2019-06-07T09:50:26.127Z,980.01
2019-06-07T09:51:26.190Z,980.03
2019-06-07T09:52:26.188Z,980.08
2019-06-07T09:53:26.153Z,980.07
2019-06-07T09:55:03.340Z,980.06
2019-06-07T09:56:26.161Z,980.00
2019-06-07T09:57:26.155Z,979.98
2019-06-07T09:58:51.784Z,979.98
2019-06-07T09:59:26.178Z,980.04
2019-06-07T10:02:26.187Z,980.01
2019-06-07T10:03:26.219Z,980.01
2019-06-07T10:04:31.035Z,979.98
2019-06-07T10:05:26.155Z,979.98
2019-06-07T10:09:42.628Z,979.96
2019-06-07T10:10:08.630Z,980.06
2019-06-07T10:11:26.176Z,980.01
2019-06-07T10:14:26.188Z,979.96
2019-06-07T10:15:26.176Z,979.97
2019-06-07T10:16:26.168Z,979.93
2019-06-07T10:17:26.223Z,979.97
2019-06-07T10:20:26.214Z,979.96
2019-06-07T10:21:26.199Z,979.89
2019-06-07T10:22:26.178Z,979.89
2019-06-07T10:23:26.198Z,979.86
2019-06-07T10:26:26.189Z,979.92
2019-06-07T10:27:26.256Z,979.95
2019-06-07T10:28:26.182Z,979.78
2019-06-07T10:29:26.205Z,979.79
2019-06-07T10:32:26.181Z,979.69
2019-06-07T10:33:26.205Z,979.60
2019-06-07T10:34:26.181Z,979.65
2019-06-07T10:35:26.238Z,979.62
2019-06-07T10:38:26.244Z,979.60
2019-06-07T10:39:26.214Z,979.63
2019-06-07T10:40:26.204Z,979.62
2019-06-07T10:41:26.182Z,979.66
2019-06-07T10:44:26.205Z,979.64
2019-06-07T10:45:26.204Z,979.56
2019-06-07T10:46:26.214Z,979.55
2019-06-07T10:47:26.297Z,979.56
2019-06-07T10:50:26.267Z,979.64
2019-06-07T10:51:26.249Z,979.64
2019-06-07T10:52:26.215Z,979.52
2019-06-07T10:53:26.272Z,979.59
2019-06-07T10:56:26.256Z,979.58
2019-06-07T10:57:26.246Z,979.54
2019-06-07T10:58:26.223Z,979.54
2019-06-07T10:59:26.266Z,979.39
2019-06-07T11:02:26.244Z,979.50
2019-06-07T11:03:26.245Z,979.38
2019-06-07T11:04:26.221Z,979.40
2019-06-07T11:05:26.209Z,979.43
2019-06-07T11:08:26.267Z,979.40
2019-06-07T11:09:26.299Z,979.44
2019-06-07T11:10:26.235Z,979.45
2019-06-07T11:11:26.273Z,979.51
2019-06-07T11:14:26.282Z,979.57
2019-06-07T11:15:26.326Z,979.49
2019-06-07T11:16:26.251Z,979.51
2019-06-07T11:17:26.299Z,979.50
2019-06-07T11:20:26.292Z,979.52
2019-06-07T11:21:26.257Z,979.55
2019-06-07T11:22:26.250Z,979.56
2019-06-07T11:23:26.263Z,979.50
2019-06-07T11:26:26.263Z,979.57
2019-06-07T11:27:26.457Z,979.44
2019-06-07T11:28:26.268Z,979.43
2019-06-07T11:29:26.237Z,979.52
2019-06-07T11:32:26.300Z,979.43
2019-06-07T11:33:26.329Z,979.53
2019-06-07T11:34:26.265Z,979.53
2019-06-07T11:35:26.315Z,979.47
2019-06-07T11:38:26.271Z,979.48
2019-06-07T11:39:26.345Z,979.51
2019-06-07T11:40:34.386Z,979.51
2019-06-07T11:41:26.272Z,979.40
2019-06-07T11:44:26.329Z,979.41
2019-06-07T11:45:26.363Z,979.39
2019-06-07T11:46:26.273Z,979.47
2019-06-07T11:47:26.294Z,979.37
2019-06-07T11:50:26.288Z,979.38
2019-06-07T11:51:26.272Z,979.35
2019-06-07T11:52:26.289Z,979.37
2019-06-07T11:53:26.295Z,979.37
2019-06-07T11:56:26.294Z,979.25
2019-06-07T11:57:26.291Z,979.36
2019-06-07T11:58:26.305Z,979.33
2019-06-07T11:59:26.283Z,979.37
2019-06-07T12:02:26.338Z,979.29
2019-06-07T12:03:26.361Z,979.34
2019-06-07T12:04:34.514Z,979.35
2019-06-07T12:05:26.309Z,979.34
2019-06-07T12:08:26.340Z,979.22
2019-06-07T12:09:28.108Z,979.25
2019-06-07T12:10:26.315Z,979.29
2019-06-07T12:11:26.355Z,979.31
2019-06-07T12:14:26.355Z,979.22
2019-06-07T12:15:26.374Z,979.27
2019-06-07T12:16:26.317Z,979.21
2019-06-07T12:17:26.363Z,979.15
2019-06-07T12:20:26.313Z,979.03
2019-06-07T12:21:26.343Z,979.15
2019-06-07T12:22:26.328Z,979.11
2019-06-07T12:23:26.368Z,979.10
2019-06-07T12:26:26.369Z,979.09
2019-06-07T12:27:26.390Z,979.08
2019-06-07T12:28:26.364Z,979.01
2019-06-07T12:29:26.329Z,978.95
2019-06-07T12:32:26.386Z,978.96
2019-06-07T12:33:26.388Z,978.98
2019-06-07T12:34:26.346Z,978.94
2019-06-07T12:35:26.381Z,978.95
2019-06-07T12:38:26.345Z,978.97
2019-06-07T12:39:26.421Z,978.89
2019-06-07T12:40:31.854Z,978.91
2019-06-07T12:41:26.356Z,978.95
2019-06-07T12:44:26.391Z,978.88
2019-06-07T12:45:43.627Z,978.87
2019-06-07T12:46:28.505Z,978.83
2019-06-07T12:47:26.386Z,978.82
2019-06-07T12:50:41.624Z,978.73
2019-06-07T12:51:26.364Z,978.82
2019-06-07T12:52:26.373Z,978.64
2019-06-07T12:53:28.108Z,978.72
2019-06-07T12:56:26.404Z,978.75
2019-06-07T12:57:26.366Z,978.79
2019-06-07T12:58:34.707Z,978.83
2019-06-07T12:59:26.395Z,978.87
2019-06-07T13:02:26.382Z,978.79
2019-06-07T13:03:26.399Z,978.78
2019-06-07T13:04:27.766Z,978.78
2019-06-07T13:05:27.898Z,978.77
2019-06-07T13:08:26.416Z,978.77
2019-06-07T13:09:26.398Z,978.79
2019-06-07T13:10:26.411Z,978.74
2019-06-07T13:11:29.513Z,978.74
2019-06-07T13:14:26.473Z,978.72
2019-06-07T13:15:26.398Z,978.64
2019-06-07T13:16:26.400Z,978.59
2019-06-07T13:17:26.431Z,978.69
2019-06-07T13:20:26.380Z,978.67
2019-06-07T13:21:26.400Z,978.57
2019-06-07T13:22:26.393Z,978.56
2019-06-07T13:23:26.392Z,978.50
2019-06-07T13:26:26.395Z,978.50
2019-06-07T13:27:26.431Z,978.52
2019-06-07T13:28:26.439Z,978.45
2019-06-07T13:29:29.603Z,978.59
2019-06-07T13:32:26.428Z,978.49
2019-06-07T13:33:29.795Z,978.58
2019-06-07T13:34:26.418Z,978.61
2019-06-07T13:35:29.416Z,978.49
2019-06-07T13:38:26.447Z,978.49
2019-06-07T13:39:29.290Z,978.54
2019-06-07T13:40:26.437Z,978.47
2019-06-07T13:41:36.845Z,978.45
2019-06-07T13:44:26.446Z,978.40
2019-06-07T13:45:26.442Z,978.40
2019-06-07T13:46:27.163Z,978.37
2019-06-07T13:47:27.494Z,978.33
2019-06-07T13:50:26.431Z,978.32
2019-06-07T13:51:27.984Z,978.40
2019-06-07T13:52:26.431Z,978.29
2019-06-07T13:53:26.479Z,978.32
2019-06-07T13:56:26.485Z,978.19
2019-06-07T13:57:26.507Z,978.29
2019-06-07T13:58:26.525Z,978.25
2019-06-07T13:59:26.538Z,978.24
2019-06-07T14:02:27.560Z,978.19
2019-06-07T14:03:28.668Z,978.15
2019-06-07T14:04:27.046Z,978.08
2019-06-07T14:05:27.279Z,978.12
2019-06-07T14:08:27.285Z,978.11
2019-06-07T14:09:27.600Z,978.05
2019-06-07T14:10:27.543Z,978.06
2019-06-07T14:11:27.765Z,978.03
2019-06-07T14:12:27.734Z,977.96
2019-06-07T14:14:27.462Z,977.97
2019-06-07T14:15:26.563Z,978.00
2019-06-07T14:16:26.481Z,977.97
2019-06-07T14:17:28.099Z,977.97
2019-06-07T14:18:26.526Z,977.88
2019-06-07T14:20:30.948Z,977.90
2019-06-07T14:21:26.725Z,977.92
2019-06-07T14:22:26.844Z,977.92
2019-06-07T14:23:42.405Z,977.96
2019-06-07T14:24:27.058Z,977.92
2019-06-07T14:26:27.311Z,978.00
2019-06-07T14:27:27.587Z,977.87
2019-06-07T14:28:28.558Z,977.95
2019-06-07T14:29:27.767Z,977.95
2019-06-07T14:30:28.247Z,977.97
2019-06-07T14:32:26.641Z,977.94
2019-06-07T14:33:28.228Z,977.93
2019-06-07T14:34:26.484Z,978.02
2019-06-07T14:35:26.752Z,978.01
2019-06-07T14:36:26.984Z,977.95
2019-06-07T14:38:27.333Z,978.02
2019-06-07T14:39:27.121Z,977.99
2019-06-07T14:40:27.956Z,977.92
2019-06-07T14:41:27.183Z,977.90
2019-06-07T14:42:27.097Z,977.93
2019-06-07T14:44:27.691Z,977.86
2019-06-07T14:45:27.719Z,977.93
2019-06-07T14:46:26.513Z,977.89
2019-06-07T14:47:27.853Z,977.96
2019-06-07T14:48:27.890Z,977.89
2019-06-07T14:50:26.515Z,977.88
2019-06-07T14:51:26.575Z,977.91
2019-06-07T14:52:26.523Z,977.91
2019-06-07T14:53:26.691Z,977.89
2019-06-07T14:54:27.426Z,977.84
2019-06-07T14:56:27.024Z,977.89
2019-06-07T14:57:26.938Z,978.00
2019-06-07T14:58:27.097Z,977.86
2019-06-07T14:59:26.562Z,977.88
2019-06-07T15:00:26.533Z,977.92
2019-06-07T15:02:26.562Z,977.92
2019-06-07T15:03:26.622Z,977.92
2019-06-07T15:04:26.549Z,977.88